createdAt,value
2023-03-06T00:00:21.266Z,7.57
2023-03-06T00:03:12.399Z,6.15
2023-03-06T00:05:43.669Z,4.97
2023-03-06T00:08:14.476Z,5.35
2023-03-06T00:10:46.104Z,6.30
2023-03-06T00:13:19.254Z,7.07
2023-03-06T00:15:48.683Z,7.02
2023-03-06T00:18:19.719Z,5.45
2023-03-06T00:20:50.301Z,4.55
2023-03-06T00:23:21.432Z,5.17
2023-03-06T00:25:52.078Z,6.01
2023-03-06T00:28:23.789Z,6.53
2023-03-06T00:30:54.768Z,6.88
2023-03-06T00:33:25.980Z,7.11
2023-03-06T00:35:57.754Z,7.31
2023-03-06T00:38:31.876Z,7.54
2023-03-06T00:41:07.484Z,6.30
2023-03-06T00:43:38.356Z,4.50
2023-03-06T00:46:11.574Z,4.61
2023-03-06T00:48:43.165Z,5.68
2023-03-06T00:51:14.139Z,6.55
2023-03-06T00:53:45.292Z,7.28
2023-03-06T00:56:16.713Z,5.77
2023-03-06T00:58:48.706Z,4.54
2023-03-06T01:01:19.494Z,4.93
2023-03-06T01:03:51.012Z,6.12
2023-03-06T01:06:22.124Z,6.86
2023-03-06T01:08:53.470Z,6.80
2023-03-06T01:11:24.206Z,5.22
2023-03-06T01:13:55.604Z,5.36
2023-03-06T01:16:26.413Z,6.58
2023-03-06T01:18:57.788Z,6.89
2023-03-06T01:21:28.980Z,6.42
2023-03-06T01:24:00.132Z,5.03
2023-03-06T01:26:30.753Z,5.17
2023-03-06T01:29:02.605Z,6.16
2023-03-06T01:31:33.719Z,6.81
2023-03-06T01:34:04.991Z,6.53
2023-03-06T01:36:35.566Z,4.80
2023-03-06T01:39:06.822Z,4.57
2023-03-06T01:41:38.022Z,5.46
2023-03-06T01:44:09.174Z,6.37
2023-03-06T01:46:42.556Z,6.52
2023-03-06T01:49:11.750Z,4.83
2023-03-06T01:51:45.815Z,4.50
2023-03-06T01:54:19.217Z,5.78
2023-03-06T01:56:51.579Z,6.44
2023-03-06T01:59:23.185Z,6.42
2023-03-06T02:01:54.924Z,4.91
2023-03-06T02:04:26.244Z,5.38
2023-03-06T02:06:57.544Z,6.29
2023-03-06T02:09:31.250Z,6.96
2023-03-06T02:12:00.140Z,6.09
2023-03-06T02:14:31.411Z,4.93
2023-03-06T02:17:02.228Z,5.82
2023-03-06T02:19:42.990Z,6.65
2023-03-06T02:22:15.089Z,6.69
2023-03-06T02:24:49.128Z,6.97
2023-03-06T02:27:20.398Z,6.84
2023-03-06T02:29:51.409Z,5.16
2023-03-06T02:32:22.624Z,5.16
2023-03-06T02:34:58.205Z,6.33
2023-03-06T02:37:29.837Z,6.83
2023-03-06T02:40:05.025Z,6.81
2023-03-06T02:42:35.760Z,4.87
2023-03-06T02:45:10.697Z,4.68
2023-03-06T02:47:41.521Z,5.56
2023-03-06T02:50:13.072Z,6.38
2023-03-06T02:52:43.872Z,6.87
2023-03-06T02:55:15.060Z,6.52
2023-03-06T02:57:45.647Z,4.98
2023-03-06T03:00:17.948Z,5.14
2023-03-06T03:02:49.721Z,5.74
2023-03-06T03:05:20.719Z,6.13
2023-03-06T03:07:55.474Z,6.63
2023-03-06T03:10:27.850Z,6.72
2023-03-06T03:12:59.049Z,6.95
2023-03-06T03:15:30.239Z,6.85
2023-03-06T03:18:01.633Z,5.51
2023-03-06T03:20:32.925Z,4.60
2023-03-06T03:23:04.177Z,5.36
2023-03-06T03:25:35.068Z,6.30
2023-03-06T03:28:06.165Z,6.72
2023-03-06T03:30:37.311Z,7.12
2023-03-06T03:33:07.922Z,5.83
2023-03-06T03:35:39.759Z,4.30
2023-03-06T03:38:10.722Z,3.60
2023-03-06T03:40:41.969Z,4.35
2023-03-06T03:43:12.687Z,5.61
2023-03-06T03:45:44.356Z,6.60
2023-03-06T03:48:15.336Z,6.91
2023-03-06T03:50:46.848Z,6.81
2023-03-06T03:53:17.833Z,5.32
2023-03-06T03:55:49.948Z,4.41
2023-03-06T03:58:21.556Z,5.33
2023-03-06T04:00:53.057Z,6.26
2023-03-06T04:03:24.132Z,6.90
2023-03-06T04:05:58.220Z,7.17
2023-03-06T04:08:29.451Z,6.82
2023-03-06T04:11:00.914Z,5.42
2023-03-06T04:13:32.932Z,4.95
2023-03-06T04:16:03.968Z,5.64
2023-03-06T04:18:35.971Z,6.43
2023-03-06T04:21:08.655Z,6.67
2023-03-06T04:23:41.154Z,6.84
2023-03-06T04:26:12.074Z,7.08
2023-03-06T04:28:42.648Z,7.41
2023-03-06T04:31:14.316Z,7.31
2023-03-06T04:33:44.883Z,5.93
2023-03-06T04:36:22.994Z,5.11
2023-03-06T04:38:54.110Z,5.73
2023-03-06T04:41:25.790Z,6.22
2023-03-06T04:43:56.813Z,6.63
2023-03-06T04:46:27.961Z,7.18
2023-03-06T04:48:59.003Z,6.18
2023-03-06T04:51:29.906Z,4.78
2023-03-06T04:54:00.477Z,5.14
2023-03-06T04:56:31.464Z,6.06
2023-03-06T04:59:01.943Z,6.88
2023-03-06T05:01:33.080Z,7.04
2023-03-06T05:04:03.878Z,7.25
2023-03-06T05:06:35.266Z,7.03
2023-03-06T05:09:05.889Z,5.64
2023-03-06T05:11:37.227Z,4.55
2023-03-06T05:14:08.069Z,5.13
2023-03-06T05:16:39.256Z,5.94
2023-03-06T05:19:10.164Z,6.64
2023-03-06T05:21:41.506Z,7.28
2023-03-06T05:24:12.683Z,6.23
2023-03-06T05:26:43.944Z,5.16
2023-03-06T05:29:14.625Z,5.87
2023-03-06T05:31:45.456Z,6.60
2023-03-06T05:34:16.600Z,7.12
2023-03-06T05:36:48.043Z,7.03
2023-03-06T05:39:18.682Z,7.40
2023-03-06T05:41:49.525Z,6.88
2023-03-06T05:44:20.042Z,5.18
2023-03-06T05:46:51.830Z,4.36
2023-03-06T05:49:22.370Z,5.09
2023-03-06T05:51:54.197Z,6.14
2023-03-06T05:54:26.572Z,6.68
2023-03-06T05:56:57.632Z,7.26
2023-03-06T05:59:29.220Z,7.73
2023-03-06T06:02:02.035Z,7.19
2023-03-06T06:04:36.655Z,5.85
2023-03-06T06:07:08.111Z,4.82
2023-03-06T06:09:38.944Z,4.32
2023-03-06T06:12:10.945Z,5.36
2023-03-06T06:14:41.647Z,6.48
2023-03-06T06:17:13.249Z,7.29
2023-03-06T06:19:44.272Z,7.28
2023-03-06T06:22:15.274Z,5.94
2023-03-06T06:24:45.897Z,5.12
2023-03-06T06:27:16.806Z,5.91
2023-03-06T06:29:47.549Z,6.92
2023-03-06T06:32:18.763Z,7.28
2023-03-06T06:34:49.492Z,7.62
2023-03-06T06:37:20.741Z,7.77
2023-03-06T06:39:51.336Z,6.46
2023-03-06T06:42:31.980Z,5.21
2023-03-06T06:45:06.548Z,4.37
2023-03-06T06:47:41.491Z,4.85
2023-03-06T06:50:14.760Z,6.14
2023-03-06T06:52:45.801Z,7.26
2023-03-06T06:55:16.545Z,8.01
2023-03-06T06:57:47.460Z,8.37
2023-03-06T07:00:19.069Z,7.55
2023-03-06T07:02:51.498Z,6.49
2023-03-06T07:05:22.293Z,5.76
2023-03-06T07:07:53.091Z,5.51
2023-03-06T07:10:24.491Z,6.67
2023-03-06T07:12:56.884Z,7.89
2023-03-06T07:15:30.118Z,6.97
2023-03-06T07:18:01.727Z,6.08
2023-03-06T07:20:32.447Z,5.26
2023-03-06T07:23:05.048Z,5.68
2023-03-06T07:25:35.864Z,6.99
2023-03-06T07:28:07.021Z,7.63
2023-03-06T07:30:37.845Z,6.68
2023-03-06T07:33:08.776Z,5.51
2023-03-06T07:35:39.768Z,5.64
2023-03-06T07:38:10.992Z,7.16
2023-03-06T07:40:42.005Z,6.67
2023-03-06T07:43:19.481Z,5.67
2023-03-06T07:46:00.028Z,5.87
2023-03-06T07:48:31.014Z,7.22
2023-03-06T07:51:02.394Z,7.90
2023-03-06T07:53:33.696Z,6.34
2023-03-06T07:56:08.780Z,5.50
2023-03-06T07:58:40.947Z,6.56
2023-03-06T08:01:13.167Z,7.54
2023-03-06T08:03:44.995Z,6.35
2023-03-06T08:06:17.001Z,5.98
2023-03-06T08:08:48.763Z,7.56
2023-03-06T08:11:20.767Z,6.93
2023-03-06T08:13:52.973Z,5.87
2023-03-06T08:16:25.328Z,7.02
2023-03-06T08:18:56.364Z,7.95
2023-03-06T08:21:27.852Z,8.43
2023-03-06T08:23:59.289Z,7.22
2023-03-06T08:26:31.498Z,6.55
2023-03-06T08:29:03.714Z,7.25
2023-03-06T08:31:35.209Z,8.41
2023-03-06T08:34:07.597Z,8.39
2023-03-06T08:36:38.476Z,6.70
2023-03-06T08:39:10.188Z,6.32
2023-03-06T08:41:42.438Z,7.92
2023-03-06T08:44:13.649Z,6.65
2023-03-06T08:46:44.430Z,6.30
2023-03-06T08:49:15.672Z,7.72
2023-03-06T08:51:46.253Z,7.75
2023-03-06T08:54:17.466Z,6.62
2023-03-06T08:56:48.122Z,7.16
2023-03-06T08:59:19.106Z,7.71
2023-03-06T09:01:49.699Z,6.85
2023-03-06T09:04:20.869Z,6.33
2023-03-06T09:06:54.514Z,7.68
2023-03-06T09:09:26.801Z,8.42
2023-03-06T09:11:57.481Z,6.76
2023-03-06T09:14:28.575Z,5.55
2023-03-06T09:16:59.615Z,5.84
2023-03-06T09:19:30.869Z,7.27
2023-03-06T09:22:02.011Z,6.73
2023-03-06T09:24:33.262Z,5.50
2023-03-06T09:27:04.298Z,5.71
2023-03-06T09:29:35.346Z,7.30
2023-03-06T09:32:06.819Z,7.02
2023-03-06T09:34:37.955Z,5.81
2023-03-06T09:37:09.125Z,5.21
2023-03-06T09:39:40.011Z,5.19
2023-03-06T09:42:15.573Z,7.05
2023-03-06T09:44:48.317Z,7.05
2023-03-06T09:47:29.421Z,5.93
2023-03-06T09:50:10.262Z,5.41
2023-03-06T09:52:46.213Z,5.01
2023-03-06T09:55:19.575Z,4.74
2023-03-06T09:57:54.939Z,4.58
2023-03-06T10:00:32.393Z,4.49
2023-03-06T10:03:09.517Z,4.47
2023-03-06T10:05:42.838Z,5.05
2023-03-06T10:08:20.952Z,5.10
2023-03-06T10:10:55.878Z,5.08
2023-03-06T10:13:29.526Z,4.97
2023-03-06T10:16:03.982Z,6.11
2023-03-06T10:18:38.677Z,6.44
2023-03-06T10:21:19.566Z,5.78
2023-03-06T10:23:53.212Z,5.37
2023-03-06T10:26:26.476Z,5.17
2023-03-06T10:29:03.166Z,5.05
2023-03-06T10:31:34.679Z,5.17
2023-03-06T10:34:13.716Z,5.12
2023-03-06T10:36:44.780Z,5.08
2023-03-06T10:39:18.329Z,5.11
2023-03-06T10:41:49.999Z,5.18
2023-03-06T10:44:24.411Z,5.21
2023-03-06T10:46:56.605Z,5.18
2023-03-06T10:49:30.198Z,5.23
2023-03-06T10:52:02.514Z,5.17
2023-03-06T10:54:34.976Z,5.07
2023-03-06T10:57:22.952Z,5.06
2023-03-06T10:59:55.170Z,5.13
2023-03-06T11:02:30.315Z,5.08
2023-03-06T11:05:02.188Z,5.07
2023-03-06T11:07:34.039Z,5.13
2023-03-06T11:10:14.098Z,5.07
2023-03-06T11:12:45.621Z,5.14
2023-03-06T11:15:23.192Z,5.18
2023-03-06T11:17:56.009Z,5.31
2023-03-06T11:20:33.590Z,5.45
2023-03-06T11:23:12.779Z,5.52
2023-03-06T11:25:48.668Z,5.48
2023-03-06T11:28:23.005Z,5.48
2023-03-06T11:30:55.453Z,5.54
2023-03-06T11:33:29.703Z,5.61
2023-03-06T11:36:05.048Z,5.63
2023-03-06T11:38:43.417Z,5.71
2023-03-06T11:41:19.627Z,5.92
2023-03-06T11:43:54.799Z,5.96
2023-03-06T11:46:28.623Z,5.94
2023-03-06T11:49:03.245Z,5.85
2023-03-06T11:51:36.050Z,5.79
2023-03-06T11:54:07.303Z,5.78
2023-03-06T11:56:40.849Z,5.74
2023-03-06T11:59:20.029Z,5.83
2023-03-06T12:01:54.963Z,5.91
2023-03-06T12:04:35.572Z,5.91
2023-03-06T12:07:12.705Z,5.92
2023-03-06T12:09:47.300Z,5.89
2023-03-06T12:15:10.511Z,5.88
2023-03-06T12:17:51.800Z,5.94
2023-03-06T12:20:28.771Z,5.92
2023-03-06T12:23:14.849Z,6.03
2023-03-06T12:25:49.494Z,6.17
2023-03-06T12:28:19.045Z,6.25
2023-03-06T12:31:23.986Z,6.35
2023-03-06T12:34:02.964Z,6.42
2023-03-06T12:36:40.064Z,6.47
2023-03-06T12:39:18.037Z,6.53
2023-03-06T12:41:58.060Z,6.57
2023-03-06T12:44:43.892Z,6.57
2023-03-06T12:47:17.177Z,6.55
2023-03-06T12:49:51.961Z,6.49
2023-03-06T12:52:30.188Z,6.52
2023-03-06T12:55:02.449Z,6.63
2023-03-06T12:57:33.618Z,6.68
2023-03-06T13:00:04.975Z,6.78
2023-03-06T13:02:52.263Z,6.82
2023-03-06T13:05:31.017Z,6.80
2023-03-06T13:08:18.850Z,6.74
2023-03-06T13:11:05.420Z,6.69
2023-03-06T13:13:42.950Z,6.67
2023-03-06T13:16:15.609Z,6.63
2023-03-06T13:18:45.537Z,6.64
2023-03-06T13:21:29.491Z,6.54
2023-03-06T13:24:05.679Z,6.48
2023-03-06T13:27:05.972Z,6.53
2023-03-06T13:30:02.515Z,6.73
2023-03-06T13:32:34.860Z,6.91
2023-03-06T13:35:19.231Z,6.94
2023-03-06T13:37:54.059Z,7.04
2023-03-06T13:40:30.504Z,7.17
2023-03-06T13:43:18.662Z,7.30
2023-03-06T13:45:50.858Z,7.39
2023-03-06T13:48:45.966Z,7.41
2023-03-06T13:51:23.334Z,7.37
2023-03-06T13:54:11.090Z,7.33
2023-03-06T13:56:54.195Z,6.73
2023-03-06T13:59:36.623Z,6.19
2023-03-06T14:02:18.895Z,5.94
2023-03-06T14:04:56.234Z,7.54
2023-03-06T14:07:28.522Z,6.57
2023-03-06T14:10:02.573Z,6.14
2023-03-06T14:12:35.250Z,8.00
2023-03-06T14:15:13.865Z,7.20
2023-03-06T14:17:55.931Z,6.09
2023-03-06T14:20:33.357Z,7.48
2023-03-06T14:23:17.840Z,6.79
2023-03-06T14:25:50.243Z,5.86
2023-03-06T14:28:27.813Z,6.79
2023-03-06T14:31:00.362Z,7.54
2023-03-06T14:33:38.141Z,6.83
2023-03-06T14:36:14.409Z,6.34
2023-03-06T14:38:50.001Z,7.33
2023-03-06T14:41:28.663Z,9.02
2023-03-06T14:44:10.501Z,8.22
2023-03-06T14:46:41.456Z,7.16
2023-03-06T14:49:13.476Z,6.79
2023-03-06T14:51:45.740Z,8.09
2023-03-06T14:54:19.550Z,8.12
2023-03-06T14:56:53.401Z,7.47
2023-03-06T14:59:27.045Z,7.16
2023-03-06T15:02:02.560Z,8.16
2023-03-06T15:04:36.779Z,8.58
2023-03-06T15:07:09.299Z,7.73
2023-03-06T15:09:40.949Z,7.01
2023-03-06T15:12:26.484Z,6.40
2023-03-06T15:14:59.865Z,5.98
2023-03-06T15:17:31.424Z,5.67
2023-03-06T15:20:02.606Z,5.53
2023-03-06T15:22:38.266Z,6.78
2023-03-06T15:25:17.694Z,7.44
2023-03-06T15:27:51.113Z,7.05
2023-03-06T15:30:27.159Z,6.33
2023-03-06T15:33:23.950Z,5.87
2023-03-06T15:35:57.545Z,5.43
2023-03-06T15:38:26.683Z,5.16
2023-03-06T15:40:58.990Z,4.95
2023-03-06T15:43:30.404Z,4.79
2023-03-06T15:46:01.996Z,4.67
2023-03-06T15:48:34.050Z,4.60
2023-03-06T15:51:05.298Z,5.51
2023-03-06T15:53:36.001Z,6.42
2023-03-06T15:56:07.721Z,6.00
2023-03-06T15:58:38.405Z,5.56
2023-03-06T16:01:12.976Z,5.26
2023-03-06T16:03:43.952Z,4.99
2023-03-06T16:06:19.094Z,4.80
2023-03-06T16:08:51.015Z,4.66
2023-03-06T16:11:32.507Z,4.56
2023-03-06T16:14:06.545Z,4.48
2023-03-06T16:16:39.984Z,4.44
2023-03-06T16:19:25.281Z,4.41
2023-03-06T16:21:59.476Z,4.38
2023-03-06T16:24:30.231Z,4.38
2023-03-06T16:27:02.164Z,4.35
2023-03-06T16:29:32.855Z,4.27
2023-03-06T16:32:04.644Z,4.23
2023-03-06T16:34:35.258Z,4.23
2023-03-06T16:37:07.611Z,4.24
2023-03-06T16:39:38.452Z,4.22
2023-03-06T16:42:09.790Z,4.21
2023-03-06T16:44:40.324Z,4.20
2023-03-06T16:47:12.422Z,4.19
2023-03-06T16:49:42.885Z,4.17
2023-03-06T16:52:14.852Z,4.14
2023-03-06T16:54:45.427Z,4.10
2023-03-06T16:57:16.614Z,4.12
2023-03-06T16:59:47.289Z,4.10
2023-03-06T17:02:18.561Z,4.07
2023-03-06T17:04:49.372Z,4.05
2023-03-06T17:07:20.307Z,3.99
2023-03-06T17:09:51.225Z,4.01
2023-03-06T17:12:22.289Z,4.17
2023-03-06T17:14:52.984Z,5.97
2023-03-06T17:17:24.274Z,6.51
2023-03-06T17:19:56.872Z,5.45
2023-03-06T17:22:28.801Z,4.78
2023-03-06T17:25:02.721Z,5.35
2023-03-06T17:27:34.873Z,6.69
2023-03-06T17:30:06.600Z,6.01
2023-03-06T17:32:38.433Z,5.20
2023-03-06T17:35:09.746Z,4.96
2023-03-06T17:37:41.234Z,6.75
2023-03-06T17:40:15.720Z,6.48
2023-03-06T17:42:46.702Z,5.48
2023-03-06T17:45:17.503Z,5.37
2023-03-06T17:47:49.223Z,6.82
2023-03-06T17:50:20.381Z,6.39
2023-03-06T17:52:51.701Z,5.50
2023-03-06T17:55:22.675Z,5.12
2023-03-06T17:57:54.892Z,6.57
2023-03-06T18:00:26.600Z,7.15
2023-03-06T18:02:58.005Z,5.94
2023-03-06T18:05:28.781Z,5.25
2023-03-06T18:07:59.846Z,6.23
2023-03-06T18:10:30.857Z,7.31
2023-03-06T18:13:03.131Z,6.49
2023-03-06T18:15:34.992Z,5.42
2023-03-06T18:18:07.966Z,5.81
2023-03-06T18:20:44.285Z,6.95
2023-03-06T18:23:16.906Z,7.50
2023-03-06T18:25:48.095Z,6.26
2023-03-06T18:28:19.910Z,5.43
2023-03-06T18:30:50.804Z,6.36
2023-03-06T18:33:22.102Z,7.07
2023-03-06T18:35:52.917Z,6.14
2023-03-06T18:38:24.283Z,5.41
2023-03-06T18:40:55.050Z,6.27
2023-03-06T18:43:26.209Z,7.51
2023-03-06T18:45:57.890Z,7.20
2023-03-06T18:48:29.266Z,5.96
2023-03-06T18:51:04.338Z,5.53
2023-03-06T18:53:35.541Z,6.60
2023-03-06T18:56:06.624Z,7.61
2023-03-06T18:58:38.127Z,7.23
2023-03-06T19:01:09.150Z,6.02
2023-03-06T19:03:41.133Z,5.85
2023-03-06T19:06:13.220Z,7.03
2023-03-06T19:08:44.577Z,7.80
2023-03-06T19:11:15.898Z,6.55
2023-03-06T19:13:47.177Z,5.58
2023-03-06T19:16:22.398Z,6.17
2023-03-06T19:18:55.804Z,6.99
2023-03-06T19:21:27.786Z,7.61
2023-03-06T19:23:59.680Z,8.22
2023-03-06T19:26:30.541Z,8.12
2023-03-06T19:29:01.657Z,6.98
2023-03-06T19:31:32.653Z,6.38
2023-03-06T19:34:03.937Z,7.23
2023-03-06T19:36:35.065Z,7.73
2023-03-06T19:39:07.845Z,6.87
2023-03-06T19:41:38.787Z,5.77
2023-03-06T19:44:12.372Z,6.11
2023-03-06T19:46:44.880Z,7.20
2023-03-06T19:49:18.322Z,7.98
2023-03-06T19:51:49.177Z,8.21
2023-03-06T19:54:24.001Z,6.90
2023-03-06T19:56:56.355Z,5.93
2023-03-06T19:59:28.395Z,6.54
2023-03-06T20:02:03.310Z,7.55
2023-03-06T20:04:35.220Z,8.06
2023-03-06T20:07:06.367Z,6.88
2023-03-06T20:09:37.890Z,5.85
2023-03-06T20:12:08.933Z,6.40
2023-03-06T20:14:40.125Z,7.21
2023-03-06T20:17:10.800Z,7.81
2023-03-06T20:19:42.254Z,8.22
2023-03-06T20:22:12.975Z,8.61
2023-03-06T20:24:43.927Z,7.52
2023-03-06T20:27:14.648Z,6.15
2023-03-06T20:29:45.917Z,6.14
2023-03-06T20:32:16.661Z,7.23
2023-03-06T20:34:47.799Z,7.99
2023-03-06T20:37:18.521Z,6.98
2023-03-06T20:39:49.743Z,5.61
2023-03-06T20:42:20.379Z,5.89
2023-03-06T20:44:51.644Z,6.79
2023-03-06T20:47:22.564Z,7.44
2023-03-06T20:49:53.601Z,7.92
2023-03-06T20:52:24.233Z,8.23
2023-03-06T20:54:56.817Z,7.69
2023-03-06T20:57:28.107Z,6.59
2023-03-06T20:59:59.820Z,5.89
2023-03-06T21:02:30.654Z,6.74
2023-03-06T21:05:01.875Z,7.21
2023-03-06T21:07:32.832Z,5.84
2023-03-06T21:10:04.049Z,5.73
2023-03-06T21:12:35.157Z,6.44
2023-03-06T21:15:08.893Z,7.11
2023-03-06T21:17:39.654Z,7.62
2023-03-06T21:20:11.732Z,8.08
2023-03-06T21:22:42.381Z,8.47
2023-03-06T21:25:13.810Z,8.75
2023-03-06T21:27:44.749Z,8.94
2023-03-06T21:30:16.195Z,9.15
2023-03-06T21:32:47.712Z,8.94
2023-03-06T21:35:19.077Z,7.20
2023-03-06T21:37:51.177Z,5.96
2023-03-06T21:40:22.863Z,6.06
2023-03-06T21:42:53.853Z,6.58
2023-03-06T21:45:30.757Z,7.28
2023-03-06T21:48:02.145Z,7.56
2023-03-06T21:50:35.365Z,6.14
2023-03-06T21:53:06.213Z,5.68
2023-03-06T21:55:39.182Z,6.56
2023-03-06T21:58:10.441Z,7.27
2023-03-06T22:00:41.880Z,7.49
2023-03-06T22:03:12.618Z,7.55
2023-03-06T22:05:43.843Z,6.33
2023-03-06T22:08:14.711Z,5.70
2023-03-06T22:10:48.452Z,6.56
2023-03-06T22:13:19.758Z,7.34
2023-03-06T22:15:55.736Z,7.31
2023-03-06T22:18:26.961Z,5.86
2023-03-06T22:20:58.299Z,5.44
2023-03-06T22:23:30.118Z,6.11
2023-03-06T22:26:05.729Z,6.84
2023-03-06T22:28:38.695Z,7.23
2023-03-06T22:31:11.246Z,7.46
2023-03-06T22:33:42.340Z,7.53
2023-03-06T22:36:15.909Z,7.89
2023-03-06T22:38:47.452Z,7.02
2023-03-06T22:41:20.202Z,5.49
2023-03-06T22:43:50.935Z,5.40
2023-03-06T22:46:23.486Z,6.23
2023-03-06T22:48:57.051Z,6.82
2023-03-06T22:51:28.752Z,7.28
2023-03-06T22:53:59.474Z,7.36
2023-03-06T22:56:30.569Z,6.09
2023-03-06T22:59:01.507Z,5.25
2023-03-06T23:01:34.029Z,5.92
2023-03-06T23:04:08.555Z,6.65
2023-03-06T23:06:41.075Z,7.20
2023-03-06T23:09:14.769Z,7.64
2023-03-06T23:12:04.428Z,8.09
2023-03-06T23:14:53.955Z,8.10
2023-03-06T23:17:43.726Z,6.74
2023-03-06T23:20:33.646Z,5.49
2023-03-06T23:23:23.899Z,5.73
2023-03-06T23:25:59.345Z,6.77
2023-03-06T23:28:30.815Z,7.51
2023-03-06T23:31:01.548Z,7.94
2023-03-06T23:33:32.667Z,7.94
2023-03-06T23:36:04.680Z,6.72
2023-03-06T23:38:35.939Z,5.54
2023-03-06T23:41:08.142Z,5.69
2023-03-06T23:43:39.335Z,6.66
2023-03-06T23:46:10.461Z,7.36
2023-03-06T23:48:42.696Z,7.75
2023-03-06T23:51:15.125Z,8.03
2023-03-06T23:53:46.676Z,7.94
2023-03-06T23:56:17.355Z,6.73
2023-03-06T23:58:48.723Z,5.39
